createdAt,value
2019-05-11T00:01:57.003Z,100016.97
2019-05-11T00:04:25.662Z,100014.05
2019-05-11T00:06:54.316Z,100014.23
2019-05-11T00:09:23.074Z,100014.13
2019-05-11T00:11:51.732Z,100006.60
2019-05-11T00:14:20.411Z,99996.91
2019-05-11T00:16:49.072Z,99997.78
2019-05-11T00:19:17.763Z,100001.53
2019-05-11T00:21:46.416Z,99997.12
2019-05-11T00:24:15.082Z,99988.16
2019-05-11T00:26:43.761Z,99984.69
2019-05-11T00:29:12.426Z,99980.27
2019-05-11T00:31:41.121Z,99984.54
2019-05-11T00:34:09.817Z,99974.58
2019-05-11T00:36:38.493Z,99971.27
2019-05-11T00:39:08.256Z,99965.53
2019-05-11T00:41:37.008Z,99958.81
2019-05-11T00:44:05.747Z,99956.49
2019-05-11T00:46:34.413Z,99959.80
2019-05-11T00:49:03.178Z,99949.55
2019-05-11T00:51:31.907Z,99956.63
2019-05-11T00:54:00.572Z,99964.86
2019-05-11T00:56:29.283Z,99963.59
2019-05-11T00:58:57.953Z,99960.55
2019-05-11T01:01:26.607Z,99969.66
2019-05-11T01:07:24.386Z,99959.75
2019-05-11T01:09:53.079Z,99962.52
2019-05-11T01:12:21.747Z,99971.17
2019-05-11T01:18:18.291Z,99958.94
2019-05-11T01:20:46.945Z,99963.48
2019-05-11T01:23:15.646Z,99957.64
2019-05-11T01:25:44.358Z,99957.86
2019-05-11T01:28:13.039Z,99953.71
2019-05-11T01:30:42.092Z,99951.36
2019-05-11T01:33:10.791Z,99945.64
2019-05-11T01:35:39.483Z,99946.22
2019-05-11T01:38:08.167Z,99943.56
2019-05-11T01:40:36.820Z,99943.29
2019-05-11T01:43:05.534Z,99945.41
2019-05-11T01:45:34.239Z,99946.21
2019-05-11T01:48:02.909Z,99946.91
2019-05-11T01:50:31.671Z,99943.96
2019-05-11T01:53:00.338Z,99943.02
2019-05-11T01:55:29.035Z,99939.51
2019-05-11T01:57:57.731Z,99940.52
2019-05-11T02:00:26.393Z,99942.69
2019-05-11T02:02:55.085Z,99938.49
2019-05-11T02:05:30.603Z,99947.80
2019-05-11T02:08:00.590Z,99938.75
2019-05-11T02:10:30.127Z,99935.98
2019-05-11T02:12:58.931Z,99937.34
2019-05-11T02:15:27.704Z,99932.84
2019-05-11T02:17:56.365Z,99936.10
2019-05-11T02:20:25.060Z,99932.31
2019-05-11T02:22:53.724Z,99936.39
2019-05-11T02:25:22.479Z,99934.05
2019-05-11T02:27:51.170Z,99940.66
2019-05-11T02:30:20.203Z,99938.23
2019-05-11T02:32:49.018Z,99937.30
2019-05-11T02:35:17.725Z,99932.41
2019-05-11T02:37:46.387Z,99924.48
2019-05-11T02:40:15.450Z,99933.16
2019-05-11T02:42:44.111Z,99939.47
2019-05-11T02:45:13.136Z,99933.55
2019-05-11T02:47:41.907Z,99937.84
2019-05-11T02:50:10.854Z,99934.07
2019-05-11T02:52:39.669Z,99932.94
2019-05-11T02:55:08.531Z,99927.56
2019-05-11T02:57:37.212Z,99932.98
2019-05-11T03:00:08.046Z,99934.66
2019-05-11T03:02:36.743Z,99925.48
2019-05-11T03:05:06.860Z,99925.53
2019-05-11T03:07:35.541Z,99925.53
2019-05-11T03:10:04.431Z,99914.55
2019-05-11T03:12:33.100Z,99907.84
2019-05-11T03:15:01.803Z,99906.73
2019-05-11T03:17:33.363Z,99906.56
2019-05-11T03:20:02.085Z,99908.82
2019-05-11T03:22:30.716Z,99913.75
2019-05-11T03:24:59.417Z,99907.77
2019-05-11T03:27:28.107Z,99910.41
2019-05-11T03:30:00.769Z,99906.97
2019-05-11T03:32:27.228Z,99899.70
2019-05-11T03:34:56.910Z,99902.47
2019-05-11T03:37:25.597Z,99900.73
2019-05-11T03:39:54.298Z,99904.80
2019-05-11T03:42:22.974Z,99903.48
2019-05-11T03:44:51.639Z,99911.06
2019-05-11T03:47:20.411Z,99918.03
2019-05-11T03:49:49.182Z,99913.14
2019-05-11T03:52:18.169Z,99909.22
2019-05-11T03:54:46.868Z,99908.20
2019-05-11T03:57:15.554Z,99908.28
2019-05-11T03:59:44.239Z,99899.52
2019-05-11T04:02:12.935Z,99899.50
2019-05-11T04:04:41.706Z,99906.12
2019-05-11T04:07:10.453Z,99899.43
2019-05-11T04:09:39.140Z,99909.22
2019-05-11T04:12:07.833Z,99904.23
2019-05-11T04:14:36.484Z,99907.66
2019-05-11T04:17:05.157Z,99914.05
2019-05-11T04:19:33.840Z,99918.36
2019-05-11T04:22:02.524Z,99919.55
2019-05-11T04:24:31.186Z,99923.57
2019-05-11T04:26:59.880Z,99928.34
2019-05-11T04:29:28.592Z,99923.95
2019-05-11T04:31:57.258Z,99925.94
2019-05-11T04:34:25.932Z,99932.03
2019-05-11T04:36:54.598Z,99932.91
2019-05-11T04:39:23.397Z,99935.11
2019-05-11T04:41:52.061Z,99943.83
2019-05-11T04:44:20.729Z,99939.19
2019-05-11T04:46:49.412Z,99944.19
2019-05-11T04:49:18.078Z,99942.48
2019-05-11T04:51:46.766Z,99948.19
2019-05-11T04:54:15.462Z,99947.56
2019-05-11T04:56:44.157Z,99953.09
2019-05-11T04:59:12.861Z,99944.69
2019-05-11T05:01:41.520Z,99950.26
2019-05-11T05:04:14.387Z,99949.15
2019-05-11T05:06:40.636Z,99947.37
2019-05-11T05:09:09.292Z,99941.27
2019-05-11T05:11:38.490Z,99946.21
2019-05-11T05:14:10.157Z,99945.27
2019-05-11T05:16:37.671Z,99942.91
2019-05-11T05:19:06.402Z,99943.98
2019-05-11T05:21:35.085Z,99946.88
2019-05-11T05:24:03.816Z,99942.39
2019-05-11T05:26:32.494Z,99935.89
2019-05-11T05:29:01.205Z,99924.33
2019-05-11T05:31:29.874Z,99928.59
2019-05-11T05:34:01.323Z,99935.47
2019-05-11T05:36:29.000Z,99935.62
2019-05-11T05:38:57.663Z,99939.80
2019-05-11T05:41:26.349Z,99941.42
2019-05-11T05:43:55.008Z,99930.55
2019-05-11T05:46:23.696Z,99933.91
2019-05-11T05:48:52.390Z,99932.61
2019-05-11T05:51:21.047Z,99939.56
2019-05-11T05:53:49.735Z,99934.38
2019-05-11T05:56:18.423Z,99934.84
2019-05-11T05:58:47.109Z,99936.86
2019-05-11T06:01:15.789Z,99928.68
2019-05-11T06:03:44.486Z,99921.20
2019-05-11T06:06:13.161Z,99919.64
2019-05-11T06:08:43.270Z,99915.85
2019-05-11T06:11:12.081Z,99914.00
2019-05-11T06:13:45.215Z,99913.31
2019-05-11T06:16:11.164Z,99918.78
2019-05-11T06:18:39.828Z,99926.11
2019-05-11T06:21:08.553Z,99925.87
2019-05-11T06:23:37.171Z,99928.23
2019-05-11T06:26:05.833Z,99924.83
2019-05-11T06:28:34.519Z,99920.22
2019-05-11T06:31:03.568Z,99920.55
2019-05-11T06:33:32.322Z,99925.27
2019-05-11T06:36:00.979Z,99930.19
2019-05-11T06:38:29.660Z,99927.43
2019-05-11T06:40:58.392Z,99931.52
2019-05-11T06:43:27.085Z,99932.61
2019-05-11T06:45:55.757Z,99933.40
2019-05-11T06:48:24.458Z,99937.42
2019-05-11T06:50:53.105Z,99939.37
2019-05-11T06:53:21.772Z,99947.02
2019-05-11T06:55:50.478Z,99941.49
2019-05-11T06:58:19.184Z,99948.75
2019-05-11T07:00:47.922Z,99949.95
2019-05-11T07:03:16.663Z,99941.41
2019-05-11T07:05:45.293Z,99950.06
2019-05-11T07:08:13.968Z,99949.50
2019-05-11T07:10:42.669Z,99937.47
2019-05-11T07:13:11.380Z,99940.68
2019-05-11T07:15:40.348Z,99934.95
2019-05-11T07:18:09.015Z,99934.63
2019-05-11T07:20:50.108Z,99945.18
2019-05-11T07:23:08.102Z,99949.80
2019-05-11T07:25:36.786Z,99944.50
2019-05-11T07:28:05.485Z,99944.77
2019-05-11T07:30:34.242Z,99956.27
2019-05-11T07:33:02.924Z,99958.23
2019-05-11T07:35:31.657Z,99955.51
2019-05-11T07:38:00.623Z,99961.31
2019-05-11T07:40:29.292Z,99957.86
2019-05-11T07:42:58.934Z,99965.09
2019-05-11T07:45:28.427Z,99967.31
2019-05-11T07:47:58.994Z,99963.06
2019-05-11T07:50:28.505Z,99972.02
2019-05-11T07:52:58.852Z,99972.43
2019-05-11T07:55:28.307Z,99979.26
2019-05-11T07:57:58.621Z,99983.11
2019-05-11T08:00:28.172Z,99977.29
2019-05-11T08:02:58.508Z,99977.35
2019-05-11T08:05:28.387Z,99978.95
2019-05-11T08:07:59.561Z,99975.39
2019-05-11T08:10:28.365Z,99974.07
2019-05-11T08:12:58.841Z,99977.32
2019-05-11T08:15:28.389Z,99980.81
2019-05-11T08:17:57.977Z,99986.95
2019-05-11T08:20:28.063Z,99981.66
2019-05-11T08:23:00.582Z,99983.86
2019-05-11T08:25:29.257Z,99983.88
2019-05-11T08:27:58.846Z,99986.20
2019-05-11T08:30:28.003Z,99986.33
2019-05-11T08:32:58.224Z,99987.03
2019-05-11T08:35:30.873Z,99988.18
2019-05-11T08:37:58.465Z,99990.05
2019-05-11T08:40:28.850Z,99987.40
2019-05-11T08:42:58.413Z,99998.08
2019-05-11T08:45:28.022Z,100001.14
2019-05-11T08:47:57.998Z,100004.38
2019-05-11T08:50:27.976Z,100004.09
2019-05-11T08:52:58.075Z,100003.66
2019-05-11T08:55:28.947Z,100010.48
2019-05-11T08:57:58.566Z,100007.17
2019-05-11T09:00:28.410Z,100007.45
2019-05-11T09:02:58.274Z,100008.45
2019-05-11T09:05:28.076Z,100005.34
2019-05-11T09:07:57.780Z,100008.80
2019-05-11T09:10:28.141Z,100010.75
2019-05-11T09:12:59.037Z,100012.39
2019-05-11T09:15:36.402Z,100019.90
2019-05-11T09:17:57.946Z,100014.32
2019-05-11T09:20:28.550Z,100023.23
2019-05-11T09:22:58.890Z,100024.66
2019-05-11T09:25:27.868Z,100029.97
2019-05-11T09:27:58.730Z,100032.63
2019-05-11T09:30:28.781Z,100028.95
2019-05-11T09:32:58.100Z,100028.88
2019-05-11T09:35:29.198Z,100041.52
2019-05-11T09:37:58.744Z,100049.50
2019-05-11T09:40:28.371Z,100054.05
2019-05-11T09:42:58.526Z,100054.75
2019-05-11T09:45:27.860Z,100051.65
2019-05-11T09:47:58.217Z,100054.06
2019-05-11T09:50:28.377Z,100058.59
2019-05-11T09:52:58.079Z,100052.19
2019-05-11T09:55:28.261Z,100055.62
2019-05-11T09:57:57.981Z,100052.05
2019-05-11T10:00:28.306Z,100056.84
2019-05-11T10:02:57.755Z,100057.28
2019-05-11T10:05:28.614Z,100057.25
2019-05-11T10:07:58.906Z,100063.02
2019-05-11T10:10:28.932Z,100066.53
2019-05-11T10:12:59.037Z,100062.31
2019-05-11T10:15:28.122Z,100062.38
2019-05-11T10:17:58.815Z,100063.73
2019-05-11T10:20:29.367Z,100072.87
2019-05-11T10:22:58.364Z,100079.55
2019-05-11T10:25:28.669Z,100071.77
2019-05-11T10:27:58.060Z,100080.32
2019-05-11T10:30:28.033Z,100071.08
2019-05-11T10:32:57.882Z,100075.58
2019-05-11T10:35:28.857Z,100083.39
2019-05-11T10:37:58.311Z,100083.59
2019-05-11T10:40:28.105Z,100097.33
2019-05-11T10:42:58.994Z,100095.83
2019-05-11T10:45:28.509Z,100103.34
2019-05-11T10:48:00.825Z,100113.61
2019-05-11T10:50:28.777Z,100118.29
2019-05-11T10:52:59.044Z,100117.92
2019-05-11T10:55:28.100Z,100120.12
2019-05-11T10:57:58.067Z,100125.17
2019-05-11T11:00:28.319Z,100123.71
2019-05-11T11:02:58.129Z,100133.81
2019-05-11T11:05:27.921Z,100138.77
2019-05-11T11:07:58.811Z,100136.97
2019-05-11T11:10:28.659Z,100141.02
2019-05-11T11:12:57.889Z,100148.61
2019-05-11T11:15:28.860Z,100149.22
2019-05-11T11:17:57.985Z,100156.50
2019-05-11T11:20:28.051Z,100161.31
2019-05-11T11:22:58.285Z,100154.18
2019-05-11T11:25:28.353Z,100169.41
2019-05-11T11:27:57.954Z,100176.27
2019-05-11T11:30:28.553Z,100184.70
2019-05-11T11:32:58.775Z,100189.61
2019-05-11T11:35:27.967Z,100189.20
2019-05-11T11:37:58.457Z,100187.73
2019-05-11T11:40:28.193Z,100194.63
2019-05-11T11:42:58.114Z,100195.78
2019-05-11T11:45:28.766Z,100203.89
2019-05-11T11:47:58.122Z,100203.33
2019-05-11T11:50:28.325Z,100212.02
2019-05-11T11:52:57.854Z,100209.27
2019-05-11T11:55:28.810Z,100213.84
2019-05-11T11:57:58.880Z,100209.40
2019-05-11T12:00:28.815Z,100214.66
2019-05-11T12:02:58.110Z,100217.13
2019-05-11T12:05:28.304Z,100219.75
2019-05-11T12:07:58.015Z,100229.92
2019-05-11T12:10:28.697Z,100231.25
2019-05-11T12:12:58.081Z,100229.09
2019-05-11T12:15:28.224Z,100237.20
2019-05-11T12:17:58.794Z,100238.01
2019-05-11T12:20:28.674Z,100245.72
2019-05-11T12:22:58.101Z,100248.88
2019-05-11T12:25:27.932Z,100247.51
2019-05-11T12:27:57.758Z,100260.63
2019-05-11T12:30:28.514Z,100254.94
2019-05-11T12:32:57.743Z,100257.62
2019-05-11T12:35:28.404Z,100254.16
2019-05-11T12:37:58.793Z,100255.10
2019-05-11T12:40:28.372Z,100254.92
2019-05-11T12:42:59.071Z,100263.25
2019-05-11T12:45:29.547Z,100270.34
2019-05-11T12:47:58.730Z,100268.50
2019-05-11T12:50:28.595Z,100267.27
2019-05-11T12:52:58.796Z,100273.10
2019-05-11T12:55:28.597Z,100279.81
2019-05-11T12:57:58.090Z,100285.51
2019-05-11T13:00:31.044Z,100291.39
2019-05-11T13:02:58.870Z,100291.96
2019-05-11T13:05:28.527Z,100293.72
2019-05-11T13:07:58.716Z,100299.50
2019-05-11T13:10:28.258Z,100303.08
2019-05-11T13:12:58.128Z,100303.87
2019-05-11T13:15:28.200Z,100313.25
2019-05-11T13:17:58.091Z,100310.59
2019-05-11T13:20:28.627Z,100313.36
2019-05-11T13:22:58.759Z,100319.81
2019-05-11T13:25:28.236Z,100316.10
2019-05-11T13:27:58.128Z,100328.91
2019-05-11T13:30:27.792Z,100326.82
2019-05-11T13:32:58.065Z,100334.16
2019-05-11T13:35:28.592Z,100334.83
2019-05-11T13:37:59.128Z,100335.46
2019-05-11T13:40:27.876Z,100330.28
2019-05-11T13:42:58.178Z,100335.86
2019-05-11T13:45:28.217Z,100345.29
2019-05-11T13:47:59.212Z,100346.35
2019-05-11T13:50:29.532Z,100345.50
2019-05-11T13:52:58.418Z,100352.96
2019-05-11T13:55:28.457Z,100348.52
2019-05-11T13:57:57.842Z,100350.01
2019-05-11T14:00:28.732Z,100351.45
2019-05-11T14:02:59.234Z,100349.83
2019-05-11T14:05:28.533Z,100360.30
2019-05-11T14:07:58.688Z,100358.56
2019-05-11T14:10:28.202Z,100368.26
2019-05-11T14:12:58.094Z,100363.45
2019-05-11T14:15:28.014Z,100369.33
2019-05-11T14:18:05.669Z,100374.91
2019-05-11T14:20:28.958Z,100379.94
2019-05-11T14:22:58.444Z,100379.73
2019-05-11T14:25:28.079Z,100382.76
2019-05-11T14:27:59.381Z,100387.72
2019-05-11T14:30:28.000Z,100393.14
2019-05-11T14:32:58.109Z,100395.75
2019-05-11T14:35:28.070Z,100395.40
2019-05-11T14:37:58.727Z,100397.05
2019-05-11T14:40:28.096Z,100397.84
2019-05-11T14:42:58.068Z,100409.32
2019-05-11T14:45:28.889Z,100406.53
2019-05-11T14:47:58.277Z,100420.44
2019-05-11T14:50:28.194Z,100423.59
2019-05-11T14:52:58.094Z,100425.17
2019-05-11T14:55:28.896Z,100431.91
2019-05-11T14:57:57.730Z,100438.00
2019-05-11T15:00:28.765Z,100449.67
2019-05-11T15:02:58.457Z,100451.84
2019-05-11T15:05:28.315Z,100451.60
2019-05-11T15:07:58.202Z,100453.83
2019-05-11T15:10:27.761Z,100453.30
2019-05-11T15:12:58.878Z,100459.97
2019-05-11T15:15:27.965Z,100466.80
2019-05-11T15:17:58.092Z,100462.30
2019-05-11T15:20:28.602Z,100469.03
2019-05-11T15:22:58.177Z,100476.26
2019-05-11T15:25:28.843Z,100475.32
2019-05-11T15:27:58.423Z,100475.91
2019-05-11T15:30:28.771Z,100481.77
2019-05-11T15:32:58.453Z,100475.70
2019-05-11T15:35:28.438Z,100485.89
2019-05-11T15:37:58.240Z,100483.31
2019-05-11T15:40:27.940Z,100487.30
2019-05-11T15:42:58.610Z,100495.39
2019-05-11T15:45:27.827Z,100487.39
2019-05-11T15:47:58.728Z,100492.20
2019-05-11T15:50:32.674Z,100496.88
2019-05-11T15:53:01.326Z,100506.27
2019-05-11T15:55:30.009Z,100508.86
2019-05-11T15:57:58.891Z,100511.12
2019-05-11T16:00:29.422Z,100512.52
2019-05-11T16:02:58.130Z,100512.64
2019-05-11T16:05:28.520Z,100515.59
2019-05-11T16:08:01.414Z,100517.02
2019-05-11T16:10:27.976Z,100521.92
2019-05-11T16:12:58.636Z,100531.45
2019-05-11T16:15:27.727Z,100529.26
2019-05-11T16:17:57.810Z,100536.08
2019-05-11T16:20:28.551Z,100532.59
2019-05-11T16:22:57.358Z,100538.17
2019-05-11T16:25:28.062Z,100539.02
2019-05-11T16:27:56.876Z,100542.91
2019-05-11T16:30:25.534Z,100548.50
2019-05-11T16:32:54.218Z,100549.20
2019-05-11T16:35:22.889Z,100558.61
2019-05-11T16:37:51.554Z,100561.92
2019-05-11T16:40:21.126Z,100558.02
2019-05-11T16:42:50.129Z,100561.16
2019-05-11T16:45:19.452Z,100560.70
2019-05-11T16:47:48.554Z,100560.31
2019-05-11T16:50:18.179Z,100562.06
2019-05-11T16:52:48.236Z,100561.95
2019-05-11T16:55:18.264Z,100566.34
2019-05-11T16:57:48.514Z,100574.11
2019-05-11T17:00:17.754Z,100576.11
2019-05-11T17:02:48.662Z,100584.68
2019-05-11T17:05:25.813Z,100577.31
2019-05-11T17:07:48.362Z,100581.39
2019-05-11T17:10:17.938Z,100573.19
2019-05-11T17:12:48.293Z,100565.58
2019-05-11T17:15:18.607Z,100574.87
2019-05-11T17:17:48.707Z,100576.53
2019-05-11T17:20:19.217Z,100591.67
2019-05-11T17:22:48.400Z,100602.11
2019-05-11T17:25:19.273Z,100608.13
2019-05-11T17:27:48.732Z,100611.91
2019-05-11T17:30:19.513Z,100624.77
2019-05-11T17:32:49.265Z,100632.42
2019-05-11T17:35:18.715Z,100645.53
2019-05-11T17:37:48.453Z,100652.66
2019-05-11T17:40:19.449Z,100648.55
2019-05-11T17:42:48.400Z,100650.81
2019-05-11T17:45:18.946Z,100650.87
2019-05-11T17:47:48.191Z,100647.03
2019-05-11T17:50:19.119Z,100647.58
2019-05-11T17:52:48.068Z,100641.84
2019-05-11T17:55:18.389Z,100643.79
2019-05-11T17:57:49.664Z,100647.98
2019-05-11T18:00:20.084Z,100661.84
2019-05-11T18:02:49.000Z,100674.00
2019-05-11T18:05:18.271Z,100676.09
2019-05-11T18:07:46.953Z,100684.00
2019-05-11T18:10:17.992Z,100695.75
2019-05-11T18:12:48.340Z,100702.56
2019-05-11T18:15:18.594Z,100701.38
2019-05-11T18:17:48.419Z,100710.00
2019-05-11T18:20:21.753Z,100714.23
2019-05-11T18:22:49.467Z,100723.66
2019-05-11T18:25:18.649Z,100731.43
2019-05-11T18:27:48.309Z,100740.74
2019-05-11T18:30:18.162Z,100747.05
2019-05-11T18:32:49.071Z,100745.86
2019-05-11T18:35:19.452Z,100757.16
2019-05-11T18:37:48.129Z,100751.49
2019-05-11T18:40:20.698Z,100758.47
2019-05-11T18:42:50.830Z,100757.34
2019-05-11T18:45:19.622Z,100757.27
2019-05-11T18:47:48.959Z,100760.73
2019-05-11T18:50:29.456Z,100765.17
2019-05-11T18:52:49.056Z,100776.22
2019-05-11T18:55:18.944Z,100782.87
2019-05-11T18:57:48.991Z,100792.67
2019-05-11T19:00:19.130Z,100788.47
2019-05-11T19:02:49.503Z,100795.51
2019-05-11T19:05:18.333Z,100801.67
2019-05-11T19:07:48.210Z,100807.91
2019-05-11T19:10:17.438Z,100807.34
2019-05-11T19:12:48.434Z,100816.93
2019-05-11T19:15:18.832Z,100826.59
2019-05-11T19:17:48.999Z,100826.38
2019-05-11T19:20:18.048Z,100832.38
2019-05-11T19:22:46.855Z,100836.83
2019-05-11T19:25:18.229Z,100842.58
2019-05-11T19:27:50.233Z,100848.81
2019-05-11T19:30:18.705Z,100855.66
2019-05-11T19:32:48.740Z,100856.89
2019-05-11T19:35:20.879Z,100860.36
2019-05-11T19:37:48.700Z,100866.78
2019-05-11T19:40:17.552Z,100877.72
2019-05-11T19:42:54.375Z,100881.91
2019-05-11T19:45:23.906Z,100888.47
2019-05-11T19:47:52.675Z,100895.30
2019-05-11T19:50:21.528Z,100899.19
2019-05-11T19:52:50.194Z,100916.10
2019-05-11T19:55:19.241Z,100926.61
2019-05-11T19:57:48.409Z,100922.92
2019-05-11T20:00:18.410Z,100932.63
2019-05-11T20:02:47.471Z,100934.66
2019-05-11T20:05:18.488Z,100944.81
2019-05-11T20:07:48.616Z,100942.63
2019-05-11T20:10:19.369Z,100947.53
2019-05-11T20:12:48.569Z,100952.56
2019-05-11T20:15:18.757Z,100953.77
2019-05-11T20:17:48.734Z,100954.74
2019-05-11T20:20:18.645Z,100964.98
2019-05-11T20:22:48.531Z,100969.44
2019-05-11T20:25:19.336Z,100980.28
2019-05-11T20:27:48.858Z,100973.62
2019-05-11T20:30:19.540Z,100978.56
2019-05-11T20:32:49.945Z,100987.84
2019-05-11T20:35:18.708Z,100992.83
2019-05-11T20:37:47.416Z,101000.70
2019-05-11T20:40:18.342Z,101000.98
2019-05-11T20:42:48.479Z,101001.71
2019-05-11T20:45:18.532Z,101012.39
2019-05-11T20:47:48.727Z,101010.81
2019-05-11T20:50:18.531Z,101009.14
2019-05-11T20:52:48.090Z,101012.92
2019-05-11T20:55:18.155Z,101016.45
2019-05-11T20:57:48.234Z,101017.84
2019-05-11T21:00:19.755Z,101030.39
2019-05-11T21:02:49.020Z,101037.85
2019-05-11T21:05:18.386Z,101038.23
2019-05-11T21:07:49.586Z,101037.84
2019-05-11T21:10:18.330Z,101042.70
2019-05-11T21:12:46.995Z,101056.94
2019-05-11T21:15:16.435Z,101054.28
2019-05-11T21:17:45.133Z,101058.32
2019-05-11T21:20:14.053Z,101062.22
2019-05-11T21:22:42.716Z,101057.50
2019-05-11T21:25:11.990Z,101059.52
2019-05-11T21:27:40.655Z,101061.33
2019-05-11T21:30:10.213Z,101066.16
2019-05-11T21:32:38.958Z,101072.56
2019-05-11T21:35:08.828Z,101078.04
2019-05-11T21:37:39.036Z,101086.01
2019-05-11T21:40:09.219Z,101087.16
2019-05-11T21:42:39.025Z,101102.22
2019-05-11T21:45:09.087Z,101112.39
2019-05-11T21:47:38.864Z,101114.45
2019-05-11T21:50:08.581Z,101110.34
2019-05-11T21:52:38.381Z,101115.78
2019-05-11T21:55:09.638Z,101120.98
2019-05-11T21:57:38.722Z,101120.97
2019-05-11T22:00:09.149Z,101124.38
2019-05-11T22:02:38.690Z,101134.83
2019-05-11T22:05:08.707Z,101132.04
2019-05-11T22:07:38.788Z,101143.59
2019-05-11T22:10:08.819Z,101146.57
2019-05-11T22:12:39.134Z,101148.97
2019-05-11T22:15:09.755Z,101149.30
2019-05-11T22:17:39.314Z,101156.58
2019-05-11T22:20:10.034Z,101159.53
2019-05-11T22:22:39.410Z,101165.77
2019-05-11T22:25:08.711Z,101170.06
2019-05-11T22:27:38.748Z,101173.12
2019-05-11T22:30:08.769Z,101179.29
2019-05-11T22:32:38.317Z,101185.30
2019-05-11T22:35:08.326Z,101186.84
2019-05-11T22:37:38.739Z,101192.94
2019-05-11T22:40:09.185Z,101198.77
2019-05-11T22:42:39.702Z,101203.24
2019-05-11T22:45:09.003Z,101203.88
2019-05-11T22:47:39.248Z,101210.00
2019-05-11T22:50:08.548Z,101213.13
2019-05-11T22:52:40.108Z,101213.13
2019-05-11T22:55:12.118Z,101222.55
2019-05-11T22:57:39.352Z,101231.34
2019-05-11T23:00:08.528Z,101231.16
2019-05-11T23:02:37.988Z,101240.89
2019-05-11T23:05:08.493Z,101240.98
2019-05-11T23:07:41.067Z,101243.87
2019-05-11T23:10:08.829Z,101251.67
2019-05-11T23:12:38.333Z,101251.89
2019-05-11T23:15:18.491Z,101251.65
2019-05-11T23:17:47.159Z,101254.45
2019-05-11T23:20:16.288Z,101253.78
2019-05-11T23:22:56.938Z,101264.67
2019-05-11T23:25:18.730Z,101265.64
2019-05-11T23:27:48.538Z,101275.05
2019-05-11T23:30:20.095Z,101271.72
2019-05-11T23:32:49.323Z,101271.27
2019-05-11T23:35:19.070Z,101268.84
2019-05-11T23:37:49.519Z,101269.48
2019-05-11T23:40:19.390Z,101274.75
2019-05-11T23:42:49.050Z,101279.55
2019-05-11T23:45:19.175Z,101287.95
2019-05-11T23:47:48.791Z,101291.22
2019-05-11T23:50:19.049Z,101289.04
2019-05-11T23:52:48.789Z,101287.51
2019-05-11T23:55:19.253Z,101292.12
2019-05-11T23:57:48.862Z,101291.63
